sensor_id;sensor_type;location;lat;lon;timestamp;P1;durP1;ratioP1;P2;durP2;ratioP2
21243;SDS011;10780;50.942;4.028;2023-04-08T00:00:15;22.83;;;8.95;;
21243;SDS011;10780;50.942;4.028;2023-04-08T00:02:41;19.85;;;8.57;;
21243;SDS011;10780;50.942;4.028;2023-04-08T00:05:07;22.15;;;8.60;;
21243;SDS011;10780;50.942;4.028;2023-04-08T00:07:33;21.23;;;8.85;;
21243;SDS011;10780;50.942;4.028;2023-04-08T00:09:59;18.33;;;9.05;;
21243;SDS011;10780;50.942;4.028;2023-04-08T00:12:25;18.55;;;9.30;;
21243;SDS011;10780;50.942;4.028;2023-04-08T00:14:50;18.90;;;8.32;;
21243;SDS011;10780;50.942;4.028;2023-04-08T00:17:16;13.95;;;9.07;;
21243;SDS011;10780;50.942;4.028;2023-04-08T00:19:42;20.38;;;10.02;;
21243;SDS011;10780;50.942;4.028;2023-04-08T00:22:08;18.38;;;9.25;;
21243;SDS011;10780;50.942;4.028;2023-04-08T00:24:34;18.15;;;9.70;;
21243;SDS011;10780;50.942;4.028;2023-04-08T00:27:00;16.73;;;8.75;;
21243;SDS011;10780;50.942;4.028;2023-04-08T00:29:26;23.33;;;8.93;;
21243;SDS011;10780;50.942;4.028;2023-04-08T00:31:52;20.90;;;9.07;;
21243;SDS011;10780;50.942;4.028;2023-04-08T00:34:18;16.35;;;8.98;;
21243;SDS011;10780;50.942;4.028;2023-04-08T00:36:44;19.92;;;9.63;;
21243;SDS011;10780;50.942;4.028;2023-04-08T00:39:12;20.90;;;9.82;;
21243;SDS011;10780;50.942;4.028;2023-04-08T00:41:38;17.92;;;8.88;;
21243;SDS011;10780;50.942;4.028;2023-04-08T00:44:04;18.70;;;9.57;;
21243;SDS011;10780;50.942;4.028;2023-04-08T00:46:30;18.73;;;9.85;;
21243;SDS011;10780;50.942;4.028;2023-04-08T00:49:01;16.90;;;9.38;;
21243;SDS011;10780;50.942;4.028;2023-04-08T00:51:30;20.20;;;9.30;;
21243;SDS011;10780;50.942;4.028;2023-04-08T00:53:56;22.75;;;9.98;;
21243;SDS011;10780;50.942;4.028;2023-04-08T00:56:21;20.00;;;9.80;;
21243;SDS011;10780;50.942;4.028;2023-04-08T00:58:48;16.95;;;9.98;;
21243;SDS011;10780;50.942;4.028;2023-04-08T01:01:23;17.35;;;9.80;;
21243;SDS011;10780;50.942;4.028;2023-04-08T01:04:16;24.52;;;10.13;;
21243;SDS011;10780;50.942;4.028;2023-04-08T01:07:29;18.73;;;10.43;;
21243;SDS011;10780;50.942;4.028;2023-04-08T01:09:38;21.25;;;9.20;;
21243;SDS011;10780;50.942;4.028;2023-04-08T01:12:08;18.38;;;9.05;;
21243;SDS011;10780;50.942;4.028;2023-04-08T01:14:38;16.95;;;8.93;;
21243;SDS011;10780;50.942;4.028;2023-04-08T01:17:06;17.63;;;9.02;;
21243;SDS011;10780;50.942;4.028;2023-04-08T01:19:35;17.60;;;9.30;;
21243;SDS011;10780;50.942;4.028;2023-04-08T01:22:11;19.80;;;8.98;;
21243;SDS011;10780;50.942;4.028;2023-04-08T01:25:00;15.68;;;8.77;;
21243;SDS011;10780;50.942;4.028;2023-04-08T01:27:30;19.00;;;9.50;;
21243;SDS011;10780;50.942;4.028;2023-04-08T01:29:57;17.45;;;9.52;;
21243;SDS011;10780;50.942;4.028;2023-04-08T01:32:23;24.17;;;9.13;;
21243;SDS011;10780;50.942;4.028;2023-04-08T01:34:51;18.75;;;9.30;;
21243;SDS011;10780;50.942;4.028;2023-04-08T01:37:18;14.65;;;8.20;;
21243;SDS011;10780;50.942;4.028;2023-04-08T01:39:45;17.30;;;8.77;;
21243;SDS011;10780;50.942;4.028;2023-04-08T01:42:12;16.08;;;9.40;;
21243;SDS011;10780;50.942;4.028;2023-04-08T01:44:39;18.00;;;8.93;;
21243;SDS011;10780;50.942;4.028;2023-04-08T01:47:06;17.73;;;9.13;;
21243;SDS011;10780;50.942;4.028;2023-04-08T01:49:34;12.82;;;8.73;;
21243;SDS011;10780;50.942;4.028;2023-04-08T01:52:01;14.85;;;8.65;;
21243;SDS011;10780;50.942;4.028;2023-04-08T01:54:29;16.52;;;8.60;;
21243;SDS011;10780;50.942;4.028;2023-04-08T01:56:54;19.23;;;9.20;;
21243;SDS011;10780;50.942;4.028;2023-04-08T01:59:22;13.60;;;8.35;;
21243;SDS011;10780;50.942;4.028;2023-04-08T02:01:53;17.55;;;8.70;;
21243;SDS011;10780;50.942;4.028;2023-04-08T02:04:20;16.00;;;8.57;;
21243;SDS011;10780;50.942;4.028;2023-04-08T02:06:45;15.80;;;8.98;;
21243;SDS011;10780;50.942;4.028;2023-04-08T02:09:11;14.98;;;9.15;;
21243;SDS011;10780;50.942;4.028;2023-04-08T02:11:37;19.80;;;9.48;;
21243;SDS011;10780;50.942;4.028;2023-04-08T02:14:03;15.43;;;8.35;;
21243;SDS011;10780;50.942;4.028;2023-04-08T02:16:30;19.05;;;9.55;;
21243;SDS011;10780;50.942;4.028;2023-04-08T02:21:56;17.63;;;9.10;;
21243;SDS011;10780;50.942;4.028;2023-04-08T02:24:47;18.27;;;9.82;;
21243;SDS011;10780;50.942;4.028;2023-04-08T02:27:14;19.08;;;9.32;;
21243;SDS011;10780;50.942;4.028;2023-04-08T02:29:41;18.48;;;9.80;;
21243;SDS011;10780;50.942;4.028;2023-04-08T02:32:07;16.80;;;9.18;;
21243;SDS011;10780;50.942;4.028;2023-04-08T02:34:36;20.13;;;9.32;;
21243;SDS011;10780;50.942;4.028;2023-04-08T02:37:04;17.65;;;9.40;;
21243;SDS011;10780;50.942;4.028;2023-04-08T02:39:33;22.00;;;10.80;;
21243;SDS011;10780;50.942;4.028;2023-04-08T02:41:58;17.65;;;9.50;;
21243;SDS011;10780;50.942;4.028;2023-04-08T02:44:24;17.60;;;9.27;;
21243;SDS011;10780;50.942;4.028;2023-04-08T02:46:50;20.85;;;10.43;;
21243;SDS011;10780;50.942;4.028;2023-04-08T02:49:15;24.92;;;10.57;;
21243;SDS011;10780;50.942;4.028;2023-04-08T02:51:41;21.50;;;11.40;;
21243;SDS011;10780;50.942;4.028;2023-04-08T02:54:07;20.65;;;12.20;;
21243;SDS011;10780;50.942;4.028;2023-04-08T02:56:32;20.65;;;10.65;;
21243;SDS011;10780;50.942;4.028;2023-04-08T02:58:58;16.20;;;10.73;;
21243;SDS011;10780;50.942;4.028;2023-04-08T03:01:23;16.63;;;10.18;;
21243;SDS011;10780;50.942;4.028;2023-04-08T03:03:49;22.33;;;11.30;;
21243;SDS011;10780;50.942;4.028;2023-04-08T03:06:15;25.40;;;11.60;;
21243;SDS011;10780;50.942;4.028;2023-04-08T03:08:40;18.17;;;11.15;;
21243;SDS011;10780;50.942;4.028;2023-04-08T03:11:06;20.10;;;10.65;;
21243;SDS011;10780;50.942;4.028;2023-04-08T03:13:32;25.33;;;11.85;;
21243;SDS011;10780;50.942;4.028;2023-04-08T03:15:58;24.20;;;11.13;;
21243;SDS011;10780;50.942;4.028;2023-04-08T03:18:24;22.85;;;11.75;;
21243;SDS011;10780;50.942;4.028;2023-04-08T03:20:49;21.52;;;10.80;;
21243;SDS011;10780;50.942;4.028;2023-04-08T03:23:15;23.75;;;12.23;;
21243;SDS011;10780;50.942;4.028;2023-04-08T03:25:41;18.13;;;10.50;;
21243;SDS011;10780;50.942;4.028;2023-04-08T03:28:07;23.33;;;11.52;;
21243;SDS011;10780;50.942;4.028;2023-04-08T03:30:32;20.92;;;12.05;;
21243;SDS011;10780;50.942;4.028;2023-04-08T03:32:58;19.38;;;10.88;;
21243;SDS011;10780;50.942;4.028;2023-04-08T03:35:24;24.33;;;11.50;;
21243;SDS011;10780;50.942;4.028;2023-04-08T03:37:49;19.30;;;11.23;;
21243;SDS011;10780;50.942;4.028;2023-04-08T03:40:15;21.88;;;10.52;;
21243;SDS011;10780;50.942;4.028;2023-04-08T03:42:40;20.70;;;11.82;;
21243;SDS011;10780;50.942;4.028;2023-04-08T03:45:06;21.48;;;10.85;;
21243;SDS011;10780;50.942;4.028;2023-04-08T03:47:32;22.63;;;11.80;;
21243;SDS011;10780;50.942;4.028;2023-04-08T03:49:58;20.60;;;10.88;;
21243;SDS011;10780;50.942;4.028;2023-04-08T03:52:24;18.88;;;10.88;;
21243;SDS011;10780;50.942;4.028;2023-04-08T03:54:49;22.02;;;11.93;;
21243;SDS011;10780;50.942;4.028;2023-04-08T03:57:15;22.55;;;10.80;;
21243;SDS011;10780;50.942;4.028;2023-04-08T03:59:41;21.52;;;11.20;;
21243;SDS011;10780;50.942;4.028;2023-04-08T04:02:06;19.25;;;11.18;;
21243;SDS011;10780;50.942;4.028;2023-04-08T04:04:32;19.60;;;11.07;;
21243;SDS011;10780;50.942;4.028;2023-04-08T04:06:59;24.88;;;11.98;;
21243;SDS011;10780;50.942;4.028;2023-04-08T04:09:25;20.48;;;12.07;;
21243;SDS011;10780;50.942;4.028;2023-04-08T04:11:51;19.10;;;11.50;;
21243;SDS011;10780;50.942;4.028;2023-04-08T04:14:16;21.30;;;11.88;;
21243;SDS011;10780;50.942;4.028;2023-04-08T04:16:42;25.15;;;11.88;;
21243;SDS011;10780;50.942;4.028;2023-04-08T04:19:07;21.52;;;11.43;;
21243;SDS011;10780;50.942;4.028;2023-04-08T04:21:33;20.45;;;11.35;;
21243;SDS011;10780;50.942;4.028;2023-04-08T04:23:59;24.25;;;12.60;;
21243;SDS011;10780;50.942;4.028;2023-04-08T04:26:24;26.15;;;13.35;;
21243;SDS011;10780;50.942;4.028;2023-04-08T04:28:50;26.20;;;12.25;;
21243;SDS011;10780;50.942;4.028;2023-04-08T04:31:19;24.77;;;13.77;;
21243;SDS011;10780;50.942;4.028;2023-04-08T04:33:46;24.17;;;13.27;;
21243;SDS011;10780;50.942;4.028;2023-04-08T04:36:12;22.75;;;11.73;;
21243;SDS011;10780;50.942;4.028;2023-04-08T04:38:38;26.27;;;13.35;;
21243;SDS011;10780;50.942;4.028;2023-04-08T04:41:04;25.75;;;13.02;;
21243;SDS011;10780;50.942;4.028;2023-04-08T04:43:29;25.17;;;13.32;;
21243;SDS011;10780;50.942;4.028;2023-04-08T04:45:55;21.67;;;13.48;;
21243;SDS011;10780;50.942;4.028;2023-04-08T04:48:21;20.92;;;13.75;;
21243;SDS011;10780;50.942;4.028;2023-04-08T04:50:57;23.27;;;13.63;;
21243;SDS011;10780;50.942;4.028;2023-04-08T04:53:24;26.83;;;12.90;;
21243;SDS011;10780;50.942;4.028;2023-04-08T04:55:50;23.85;;;14.52;;
21243;SDS011;10780;50.942;4.028;2023-04-08T04:58:16;24.08;;;13.32;;
21243;SDS011;10780;50.942;4.028;2023-04-08T05:00:42;21.02;;;13.27;;
21243;SDS011;10780;50.942;4.028;2023-04-08T05:03:08;27.83;;;14.45;;
21243;SDS011;10780;50.942;4.028;2023-04-08T05:05:33;30.92;;;14.93;;
21243;SDS011;10780;50.942;4.028;2023-04-08T05:07:59;27.50;;;13.60;;
21243;SDS011;10780;50.942;4.028;2023-04-08T05:10:25;28.35;;;14.68;;
21243;SDS011;10780;50.942;4.028;2023-04-08T05:12:51;29.25;;;15.13;;
21243;SDS011;10780;50.942;4.028;2023-04-08T05:15:16;26.08;;;14.60;;
21243;SDS011;10780;50.942;4.028;2023-04-08T05:17:42;28.98;;;14.27;;
21243;SDS011;10780;50.942;4.028;2023-04-08T05:20:07;28.38;;;15.63;;
21243;SDS011;10780;50.942;4.028;2023-04-08T05:22:33;27.85;;;14.85;;
21243;SDS011;10780;50.942;4.028;2023-04-08T05:24:59;27.20;;;15.30;;
21243;SDS011;10780;50.942;4.028;2023-04-08T05:27:25;25.85;;;14.88;;
21243;SDS011;10780;50.942;4.028;2023-04-08T05:29:51;25.02;;;14.18;;
21243;SDS011;10780;50.942;4.028;2023-04-08T05:32:16;27.35;;;14.30;;
21243;SDS011;10780;50.942;4.028;2023-04-08T05:34:42;28.65;;;15.43;;
21243;SDS011;10780;50.942;4.028;2023-04-08T05:37:08;28.90;;;16.30;;
21243;SDS011;10780;50.942;4.028;2023-04-08T05:39:34;25.00;;;14.68;;
21243;SDS011;10780;50.942;4.028;2023-04-08T05:42:00;29.13;;;15.93;;
21243;SDS011;10780;50.942;4.028;2023-04-08T05:44:26;32.97;;;16.38;;
21243;SDS011;10780;50.942;4.028;2023-04-08T05:46:51;32.25;;;16.85;;
21243;SDS011;10780;50.942;4.028;2023-04-08T05:49:17;34.22;;;15.98;;
21243;SDS011;10780;50.942;4.028;2023-04-08T05:51:43;30.02;;;15.15;;
21243;SDS011;10780;50.942;4.028;2023-04-08T05:54:09;32.47;;;16.15;;
21243;SDS011;10780;50.942;4.028;2023-04-08T05:56:34;32.85;;;16.23;;
21243;SDS011;10780;50.942;4.028;2023-04-08T05:59:00;29.85;;;15.43;;
21243;SDS011;10780;50.942;4.028;2023-04-08T06:01:26;29.52;;;15.90;;
21243;SDS011;10780;50.942;4.028;2023-04-08T06:03:51;35.20;;;17.42;;
21243;SDS011;10780;50.942;4.028;2023-04-08T06:06:19;31.63;;;16.40;;
21243;SDS011;10780;50.942;4.028;2023-04-08T06:08:45;35.75;;;17.65;;
21243;SDS011;10780;50.942;4.028;2023-04-08T06:11:11;34.55;;;16.15;;
21243;SDS011;10780;50.942;4.028;2023-04-08T06:13:36;25.75;;;15.65;;
21243;SDS011;10780;50.942;4.028;2023-04-08T06:16:09;26.30;;;15.60;;
21243;SDS011;10780;50.942;4.028;2023-04-08T06:18:35;33.72;;;16.45;;
21243;SDS011;10780;50.942;4.028;2023-04-08T06:21:01;30.45;;;16.40;;
21243;SDS011;10780;50.942;4.028;2023-04-08T06:23:26;31.55;;;15.85;;
21243;SDS011;10780;50.942;4.028;2023-04-08T06:25:52;31.10;;;16.00;;
21243;SDS011;10780;50.942;4.028;2023-04-08T06:28:18;29.45;;;14.95;;
21243;SDS011;10780;50.942;4.028;2023-04-08T06:30:43;30.63;;;15.93;;
21243;SDS011;10780;50.942;4.028;2023-04-08T06:33:09;28.98;;;14.57;;
21243;SDS011;10780;50.942;4.028;2023-04-08T06:35:35;27.25;;;14.85;;
21243;SDS011;10780;50.942;4.028;2023-04-08T06:38:01;29.20;;;14.93;;
21243;SDS011;10780;50.942;4.028;2023-04-08T06:40:27;32.65;;;15.20;;
21243;SDS011;10780;50.942;4.028;2023-04-08T06:42:53;27.75;;;15.82;;
21243;SDS011;10780;50.942;4.028;2023-04-08T06:45:19;30.38;;;15.88;;
21243;SDS011;10780;50.942;4.028;2023-04-08T06:47:45;33.13;;;16.10;;
21243;SDS011;10780;50.942;4.028;2023-04-08T06:50:11;30.73;;;16.90;;
21243;SDS011;10780;50.942;4.028;2023-04-08T06:52:36;30.40;;;15.52;;
21243;SDS011;10780;50.942;4.028;2023-04-08T06:55:02;35.05;;;17.02;;
21243;SDS011;10780;50.942;4.028;2023-04-08T06:57:28;32.92;;;16.73;;
21243;SDS011;10780;50.942;4.028;2023-04-08T06:59:53;31.70;;;17.33;;
21243;SDS011;10780;50.942;4.028;2023-04-08T07:02:20;34.22;;;17.23;;
21243;SDS011;10780;50.942;4.028;2023-04-08T07:04:46;33.83;;;18.75;;
21243;SDS011;10780;50.942;4.028;2023-04-08T07:07:12;34.50;;;17.88;;
21243;SDS011;10780;50.942;4.028;2023-04-08T07:09:38;37.75;;;19.42;;
21243;SDS011;10780;50.942;4.028;2023-04-08T07:12:05;41.75;;;20.17;;
21243;SDS011;10780;50.942;4.028;2023-04-08T07:14:31;35.83;;;18.42;;
21243;SDS011;10780;50.942;4.028;2023-04-08T07:16:57;33.75;;;20.10;;
21243;SDS011;10780;50.942;4.028;2023-04-08T07:19:22;36.47;;;20.63;;
21243;SDS011;10780;50.942;4.028;2023-04-08T07:21:48;37.55;;;20.15;;
21243;SDS011;10780;50.942;4.028;2023-04-08T07:24:14;34.88;;;21.05;;
21243;SDS011;10780;50.942;4.028;2023-04-08T07:26:40;39.45;;;20.85;;
21243;SDS011;10780;50.942;4.028;2023-04-08T07:29:05;36.10;;;19.27;;
21243;SDS011;10780;50.942;4.028;2023-04-08T07:31:31;29.33;;;16.80;;
21243;SDS011;10780;50.942;4.028;2023-04-08T07:33:57;30.50;;;15.63;;
21243;SDS011;10780;50.942;4.028;2023-04-08T07:36:23;28.73;;;17.33;;
21243;SDS011;10780;50.942;4.028;2023-04-08T07:38:49;34.83;;;16.98;;
21243;SDS011;10780;50.942;4.028;2023-04-08T07:41:14;30.90;;;15.75;;
21243;SDS011;10780;50.942;4.028;2023-04-08T07:43:40;25.05;;;14.70;;
21243;SDS011;10780;50.942;4.028;2023-04-08T07:46:06;27.45;;;16.10;;
21243;SDS011;10780;50.942;4.028;2023-04-08T07:48:33;28.35;;;16.25;;
21243;SDS011;10780;50.942;4.028;2023-04-08T07:51:05;25.20;;;14.68;;
21243;SDS011;10780;50.942;4.028;2023-04-08T07:53:32;23.33;;;14.00;;
21243;SDS011;10780;50.942;4.028;2023-04-08T07:55:58;31.23;;;16.30;;
21243;SDS011;10780;50.942;4.028;2023-04-08T07:58:24;23.90;;;14.65;;
21243;SDS011;10780;50.942;4.028;2023-04-08T08:00:50;22.60;;;14.27;;
21243;SDS011;10780;50.942;4.028;2023-04-08T08:03:16;25.30;;;15.32;;
21243;SDS011;10780;50.942;4.028;2023-04-08T08:05:42;24.65;;;14.15;;
21243;SDS011;10780;50.942;4.028;2023-04-08T08:08:07;25.73;;;14.95;;
21243;SDS011;10780;50.942;4.028;2023-04-08T08:10:36;25.48;;;14.00;;
21243;SDS011;10780;50.942;4.028;2023-04-08T08:13:02;26.17;;;13.95;;
21243;SDS011;10780;50.942;4.028;2023-04-08T08:15:28;22.17;;;13.95;;
21243;SDS011;10780;50.942;4.028;2023-04-08T08:17:54;20.85;;;12.80;;
21243;SDS011;10780;50.942;4.028;2023-04-08T08:20:19;26.00;;;13.70;;
21243;SDS011;10780;50.942;4.028;2023-04-08T08:22:45;23.17;;;12.95;;
21243;SDS011;10780;50.942;4.028;2023-04-08T08:25:10;17.85;;;11.98;;
21243;SDS011;10780;50.942;4.028;2023-04-08T08:27:36;18.40;;;12.15;;
21243;SDS011;10780;50.942;4.028;2023-04-08T08:30:04;20.45;;;11.82;;
21243;SDS011;10780;50.942;4.028;2023-04-08T08:32:30;24.05;;;13.68;;
21243;SDS011;10780;50.942;4.028;2023-04-08T08:34:55;19.75;;;13.00;;
21243;SDS011;10780;50.942;4.028;2023-04-08T08:37:21;27.67;;;14.10;;
21243;SDS011;10780;50.942;4.028;2023-04-08T08:39:47;26.90;;;13.77;;
21243;SDS011;10780;50.942;4.028;2023-04-08T08:42:22;30.20;;;16.30;;
21243;SDS011;10780;50.942;4.028;2023-04-08T08:44:49;24.23;;;14.85;;
21243;SDS011;10780;50.942;4.028;2023-04-08T08:47:15;29.08;;;16.38;;
21243;SDS011;10780;50.942;4.028;2023-04-08T08:49:41;28.90;;;15.60;;
21243;SDS011;10780;50.942;4.028;2023-04-08T08:52:07;32.00;;;16.45;;
21243;SDS011;10780;50.942;4.028;2023-04-08T08:54:34;35.65;;;17.25;;
21243;SDS011;10780;50.942;4.028;2023-04-08T08:57:00;31.33;;;16.55;;
21243;SDS011;10780;50.942;4.028;2023-04-08T08:59:25;39.22;;;17.90;;
21243;SDS011;10780;50.942;4.028;2023-04-08T09:01:51;31.88;;;17.08;;
21243;SDS011;10780;50.942;4.028;2023-04-08T09:04:18;31.05;;;16.90;;
21243;SDS011;10780;50.942;4.028;2023-04-08T09:06:48;33.42;;;16.83;;
21243;SDS011;10780;50.942;4.028;2023-04-08T09:09:16;34.35;;;16.08;;
21243;SDS011;10780;50.942;4.028;2023-04-08T09:11:43;34.55;;;16.70;;
21243;SDS011;10780;50.942;4.028;2023-04-08T09:14:23;26.50;;;15.02;;
21243;SDS011;10780;50.942;4.028;2023-04-08T09:16:50;25.30;;;14.43;;
21243;SDS011;10780;50.942;4.028;2023-04-08T09:19:16;25.92;;;13.27;;
21243;SDS011;10780;50.942;4.028;2023-04-08T09:21:42;27.20;;;14.45;;
21243;SDS011;10780;50.942;4.028;2023-04-08T09:24:08;23.23;;;13.70;;
21243;SDS011;10780;50.942;4.028;2023-04-08T09:26:50;21.52;;;13.07;;
21243;SDS011;10780;50.942;4.028;2023-04-08T09:29:16;24.67;;;13.02;;
21243;SDS011;10780;50.942;4.028;2023-04-08T09:31:41;21.33;;;13.07;;
21243;SDS011;10780;50.942;4.028;2023-04-08T09:34:11;22.27;;;12.75;;
21243;SDS011;10780;50.942;4.028;2023-04-08T09:36:39;23.50;;;12.50;;
21243;SDS011;10780;50.942;4.028;2023-04-08T09:39:05;21.83;;;13.00;;
21243;SDS011;10780;50.942;4.028;2023-04-08T09:41:34;22.30;;;13.60;;
21243;SDS011;10780;50.942;4.028;2023-04-08T09:44:04;22.95;;;14.23;;
21243;SDS011;10780;50.942;4.028;2023-04-08T09:46:32;19.75;;;13.40;;
21243;SDS011;10780;50.942;4.028;2023-04-08T09:51:58;25.00;;;16.30;;
21243;SDS011;10780;50.942;4.028;2023-04-08T10:00:13;19.30;;;12.82;;
21243;SDS011;10780;50.942;4.028;2023-04-08T10:03:26;17.38;;;12.15;;
21243;SDS011;10780;50.942;4.028;2023-04-08T10:05:47;16.30;;;11.40;;
21243;SDS011;10780;50.942;4.028;2023-04-08T10:08:14;17.23;;;12.07;;
21243;SDS011;10780;50.942;4.028;2023-04-08T10:10:40;20.25;;;12.05;;
21243;SDS011;10780;50.942;4.028;2023-04-08T10:13:06;16.38;;;12.23;;
21243;SDS011;10780;50.942;4.028;2023-04-08T10:15:33;17.65;;;12.00;;
21243;SDS011;10780;50.942;4.028;2023-04-08T10:23:00;15.88;;;11.18;;
21243;SDS011;10780;50.942;4.028;2023-04-08T10:25:37;19.20;;;12.02;;
21243;SDS011;10780;50.942;4.028;2023-04-08T10:30:46;20.27;;;12.45;;
21243;SDS011;10780;50.942;4.028;2023-04-08T10:35:43;17.05;;;11.93;;
21243;SDS011;10780;50.942;4.028;2023-04-08T10:38:13;18.50;;;12.88;;
21243;SDS011;10780;50.942;4.028;2023-04-08T10:40:40;16.02;;;11.57;;
21243;SDS011;10780;50.942;4.028;2023-04-08T10:43:10;24.38;;;14.63;;
21243;SDS011;10780;50.942;4.028;2023-04-08T10:45:37;29.27;;;16.23;;
21243;SDS011;10780;50.942;4.028;2023-04-08T10:48:17;21.08;;;14.55;;
21243;SDS011;10780;50.942;4.028;2023-04-08T10:50:51;19.40;;;13.70;;
21243;SDS011;10780;50.942;4.028;2023-04-08T10:53:22;22.27;;;14.90;;
21243;SDS011;10780;50.942;4.028;2023-04-08T10:56:03;22.15;;;13.85;;
21243;SDS011;10780;50.942;4.028;2023-04-08T10:58:30;19.83;;;13.70;;
21243;SDS011;10780;50.942;4.028;2023-04-08T11:01:01;19.38;;;14.23;;
21243;SDS011;10780;50.942;4.028;2023-04-08T11:03:31;18.58;;;13.32;;
21243;SDS011;10780;50.942;4.028;2023-04-08T11:06:00;20.98;;;14.27;;
21243;SDS011;10780;50.942;4.028;2023-04-08T11:08:30;21.35;;;14.65;;
21243;SDS011;10780;50.942;4.028;2023-04-08T11:10:56;20.88;;;14.63;;
21243;SDS011;10780;50.942;4.028;2023-04-08T11:13:25;24.08;;;15.07;;
21243;SDS011;10780;50.942;4.028;2023-04-08T11:15:51;23.85;;;14.82;;
21243;SDS011;10780;50.942;4.028;2023-04-08T11:18:16;22.42;;;15.07;;
21243;SDS011;10780;50.942;4.028;2023-04-08T11:20:43;23.55;;;15.20;;
21243;SDS011;10780;50.942;4.028;2023-04-08T11:23:14;23.73;;;15.35;;
21243;SDS011;10780;50.942;4.028;2023-04-08T11:25:41;23.92;;;16.02;;
21243;SDS011;10780;50.942;4.028;2023-04-08T11:28:07;22.88;;;15.27;;
21243;SDS011;10780;50.942;4.028;2023-04-08T11:30:33;24.25;;;14.50;;
21243;SDS011;10780;50.942;4.028;2023-04-08T11:32:59;23.25;;;15.10;;
21243;SDS011;10780;50.942;4.028;2023-04-08T11:35:28;22.17;;;15.45;;
21243;SDS011;10780;50.942;4.028;2023-04-08T11:37:55;20.80;;;14.38;;
21243;SDS011;10780;50.942;4.028;2023-04-08T11:40:21;19.27;;;14.55;;
21243;SDS011;10780;50.942;4.028;2023-04-08T11:42:48;21.00;;;13.48;;
21243;SDS011;10780;50.942;4.028;2023-04-08T11:45:18;19.85;;;13.30;;
21243;SDS011;10780;50.942;4.028;2023-04-08T11:47:47;20.55;;;14.57;;
21243;SDS011;10780;50.942;4.028;2023-04-08T11:50:31;24.50;;;15.23;;
21243;SDS011;10780;50.942;4.028;2023-04-08T11:52:57;17.77;;;13.10;;
21243;SDS011;10780;50.942;4.028;2023-04-08T11:55:27;17.35;;;12.60;;
21243;SDS011;10780;50.942;4.028;2023-04-08T11:57:54;20.23;;;14.57;;
21243;SDS011;10780;50.942;4.028;2023-04-08T12:00:21;19.38;;;13.25;;
21243;SDS011;10780;50.942;4.028;2023-04-08T12:02:48;12.18;;;9.98;;
21243;SDS011;10780;50.942;4.028;2023-04-08T12:05:15;9.70;;;8.38;;
21243;SDS011;10780;50.942;4.028;2023-04-08T12:07:41;11.38;;;9.07;;
21243;SDS011;10780;50.942;4.028;2023-04-08T12:10:08;13.80;;;9.57;;
21243;SDS011;10780;50.942;4.028;2023-04-08T12:12:34;14.25;;;10.57;;
21243;SDS011;10780;50.942;4.028;2023-04-08T12:15:00;17.00;;;11.77;;
21243;SDS011;10780;50.942;4.028;2023-04-08T12:17:26;16.25;;;11.60;;
21243;SDS011;10780;50.942;4.028;2023-04-08T12:19:52;15.38;;;10.98;;
21243;SDS011;10780;50.942;4.028;2023-04-08T12:22:18;19.77;;;12.73;;
21243;SDS011;10780;50.942;4.028;2023-04-08T12:24:43;18.65;;;13.27;;
21243;SDS011;10780;50.942;4.028;2023-04-08T12:27:09;18.38;;;12.45;;
21243;SDS011;10780;50.942;4.028;2023-04-08T12:29:35;14.85;;;11.73;;
21243;SDS011;10780;50.942;4.028;2023-04-08T12:32:00;21.17;;;13.60;;
21243;SDS011;10780;50.942;4.028;2023-04-08T12:34:26;21.17;;;13.60;;
21243;SDS011;10780;50.942;4.028;2023-04-08T12:36:52;17.85;;;12.88;;
21243;SDS011;10780;50.942;4.028;2023-04-08T12:39:19;19.65;;;14.48;;
21243;SDS011;10780;50.942;4.028;2023-04-08T12:41:45;16.20;;;12.35;;
21243;SDS011;10780;50.942;4.028;2023-04-08T12:44:10;16.90;;;12.50;;
21243;SDS011;10780;50.942;4.028;2023-04-08T12:46:36;17.58;;;13.05;;
21243;SDS011;10780;50.942;4.028;2023-04-08T12:49:02;18.13;;;12.70;;
21243;SDS011;10780;50.942;4.028;2023-04-08T12:51:27;17.23;;;12.27;;
21243;SDS011;10780;50.942;4.028;2023-04-08T12:53:53;16.55;;;12.68;;
21243;SDS011;10780;50.942;4.028;2023-04-08T12:56:19;20.88;;;13.65;;
21243;SDS011;10780;50.942;4.028;2023-04-08T12:58:45;17.85;;;12.88;;
21243;SDS011;10780;50.942;4.028;2023-04-08T13:01:11;18.30;;;12.35;;
21243;SDS011;10780;50.942;4.028;2023-04-08T13:03:36;14.55;;;11.40;;
21243;SDS011;10780;50.942;4.028;2023-04-08T13:06:02;15.10;;;11.38;;
21243;SDS011;10780;50.942;4.028;2023-04-08T13:08:28;17.17;;;12.65;;
21243;SDS011;10780;50.942;4.028;2023-04-08T13:10:53;15.23;;;11.95;;
21243;SDS011;10780;50.942;4.028;2023-04-08T13:13:19;17.30;;;12.77;;
21243;SDS011;10780;50.942;4.028;2023-04-08T13:15:45;21.58;;;15.02;;
21243;SDS011;10780;50.942;4.028;2023-04-08T13:18:11;23.70;;;15.25;;
21243;SDS011;10780;50.942;4.028;2023-04-08T13:20:37;20.23;;;13.65;;
21243;SDS011;10780;50.942;4.028;2023-04-08T13:23:02;20.73;;;14.05;;
21243;SDS011;10780;50.942;4.028;2023-04-08T13:25:28;20.20;;;15.23;;
21243;SDS011;10780;50.942;4.028;2023-04-08T13:27:54;18.67;;;13.73;;
21243;SDS011;10780;50.942;4.028;2023-04-08T13:30:20;19.33;;;14.45;;
21243;SDS011;10780;50.942;4.028;2023-04-08T13:32:45;20.05;;;14.43;;
21243;SDS011;10780;50.942;4.028;2023-04-08T13:35:11;18.30;;;13.75;;
21243;SDS011;10780;50.942;4.028;2023-04-08T13:37:36;20.25;;;14.68;;
21243;SDS011;10780;50.942;4.028;2023-04-08T13:40:02;18.55;;;13.73;;
21243;SDS011;10780;50.942;4.028;2023-04-08T13:42:29;18.92;;;14.10;;
21243;SDS011;10780;50.942;4.028;2023-04-08T13:44:57;23.30;;;14.68;;
21243;SDS011;10780;50.942;4.028;2023-04-08T13:47:23;20.13;;;14.13;;
21243;SDS011;10780;50.942;4.028;2023-04-08T13:49:48;24.98;;;14.95;;
21243;SDS011;10780;50.942;4.028;2023-04-08T13:52:14;19.92;;;14.52;;
21243;SDS011;10780;50.942;4.028;2023-04-08T13:54:40;19.13;;;14.75;;
21243;SDS011;10780;50.942;4.028;2023-04-08T13:57:06;21.13;;;15.05;;
21243;SDS011;10780;50.942;4.028;2023-04-08T13:59:31;18.25;;;13.73;;
21243;SDS011;10780;50.942;4.028;2023-04-08T14:01:57;19.63;;;14.50;;
21243;SDS011;10780;50.942;4.028;2023-04-08T14:04:25;20.30;;;14.13;;
21243;SDS011;10780;50.942;4.028;2023-04-08T14:06:51;20.95;;;14.45;;
21243;SDS011;10780;50.942;4.028;2023-04-08T14:09:17;19.83;;;13.50;;
21243;SDS011;10780;50.942;4.028;2023-04-08T14:11:44;20.00;;;14.35;;
21243;SDS011;10780;50.942;4.028;2023-04-08T14:14:10;22.42;;;15.85;;
21243;SDS011;10780;50.942;4.028;2023-04-08T14:16:36;20.55;;;15.23;;
21243;SDS011;10780;50.942;4.028;2023-04-08T14:19:02;19.92;;;13.65;;
21243;SDS011;10780;50.942;4.028;2023-04-08T14:21:28;22.83;;;15.38;;
21243;SDS011;10780;50.942;4.028;2023-04-08T14:23:55;21.45;;;14.32;;
21243;SDS011;10780;50.942;4.028;2023-04-08T14:26:21;16.92;;;12.98;;
21243;SDS011;10780;50.942;4.028;2023-04-08T14:28:47;18.98;;;13.90;;
21243;SDS011;10780;50.942;4.028;2023-04-08T14:31:13;21.70;;;14.35;;
21243;SDS011;10780;50.942;4.028;2023-04-08T14:33:39;18.42;;;13.63;;
21243;SDS011;10780;50.942;4.028;2023-04-08T14:36:06;21.10;;;14.10;;
21243;SDS011;10780;50.942;4.028;2023-04-08T14:38:32;18.27;;;13.40;;
21243;SDS011;10780;50.942;4.028;2023-04-08T14:40:58;17.80;;;13.15;;
21243;SDS011;10780;50.942;4.028;2023-04-08T14:43:23;18.75;;;12.77;;